createdAt,value
2018-03-11T00:00:31.653Z,11.90
2018-03-11T00:02:35.721Z,11.90
2018-03-11T00:04:40.108Z,11.80
2018-03-11T00:06:43.658Z,11.80
2018-03-11T00:08:47.190Z,11.90
2018-03-11T00:10:50.795Z,11.90
2018-03-11T00:12:54.328Z,12.00
2018-03-11T00:14:57.871Z,11.90
2018-03-11T00:17:01.457Z,11.90
2018-03-11T00:19:05.036Z,11.80
2018-03-11T00:21:09.352Z,11.90
2018-03-11T00:23:12.972Z,11.90
2018-03-11T00:25:16.534Z,11.90
2018-03-11T00:27:20.894Z,11.90
2018-03-11T00:29:24.441Z,11.90
2018-03-11T00:31:27.979Z,11.90
2018-03-11T00:33:31.610Z,11.90
2018-03-11T00:35:35.117Z,11.80
2018-03-11T00:37:38.708Z,11.90
2018-03-11T00:39:42.284Z,11.90
2018-03-11T00:41:45.812Z,11.90
2018-03-11T00:43:50.136Z,11.80
2018-03-11T00:45:54.487Z,11.80
2018-03-11T00:47:58.014Z,11.80
2018-03-11T00:50:01.587Z,11.80
2018-03-11T00:52:05.180Z,11.80
2018-03-11T00:54:09.485Z,11.70
2018-03-11T00:56:13.083Z,11.70
2018-03-11T00:58:16.600Z,11.80
2018-03-11T01:00:20.149Z,11.80
2018-03-11T01:02:24.495Z,11.80
2018-03-11T01:04:28.099Z,11.80
2018-03-11T01:06:31.663Z,11.80
2018-03-11T01:08:35.216Z,11.80
2018-03-11T01:10:38.785Z,11.80
2018-03-11T01:12:42.334Z,11.70
2018-03-11T01:14:46.609Z,11.80
2018-03-11T01:16:50.961Z,11.80
2018-03-11T01:18:55.280Z,11.80
2018-03-11T01:20:58.856Z,11.80
2018-03-11T01:23:03.252Z,11.80
2018-03-11T01:25:06.814Z,11.80
2018-03-11T01:27:10.357Z,11.70
2018-03-11T01:29:13.896Z,11.70
2018-03-11T01:31:17.493Z,11.70
2018-03-11T01:33:21.048Z,11.80
2018-03-11T01:35:25.349Z,11.80
2018-03-11T01:37:28.956Z,11.80
2018-03-11T01:39:32.508Z,11.80
2018-03-11T01:41:36.058Z,11.80
2018-03-11T01:43:40.436Z,11.60
2018-03-11T01:45:43.972Z,11.60
2018-03-11T01:47:48.314Z,11.60
2018-03-11T01:49:51.877Z,11.60
2018-03-11T01:51:55.382Z,11.60
2018-03-11T01:53:59.739Z,11.50
2018-03-11T01:56:03.246Z,11.50
2018-03-11T01:58:06.807Z,11.60
2018-03-11T02:00:10.413Z,11.60
2018-03-11T02:02:13.950Z,11.60
2018-03-11T02:04:17.539Z,11.70
2018-03-11T02:06:21.136Z,11.70
2018-03-11T02:08:24.708Z,11.60
2018-03-11T02:10:28.228Z,11.60
2018-03-11T02:12:31.801Z,11.70
2018-03-11T02:14:35.381Z,11.60
2018-03-11T02:16:38.974Z,11.70
2018-03-11T02:18:42.516Z,11.70
2018-03-11T02:20:46.862Z,11.60
2018-03-11T02:22:51.234Z,11.60
2018-03-11T02:24:54.753Z,11.60
2018-03-11T02:26:58.364Z,11.60
2018-03-11T02:29:02.742Z,11.60
2018-03-11T02:31:06.295Z,11.60
2018-03-11T02:33:09.932Z,11.60
2018-03-11T02:35:13.506Z,11.50
2018-03-11T02:37:17.052Z,11.60
2018-03-11T02:39:20.607Z,11.60
2018-03-11T02:41:24.168Z,11.60
2018-03-11T02:43:27.755Z,11.60
2018-03-11T02:45:39.996Z,11.50
2018-03-11T02:47:45.528Z,11.50
2018-03-11T02:49:49.137Z,11.50
2018-03-11T02:51:52.642Z,11.60
2018-03-11T02:53:56.205Z,11.40
2018-03-11T02:55:59.767Z,11.30
2018-03-11T02:58:03.323Z,11.30
2018-03-11T03:00:06.958Z,11.40
2018-03-11T03:02:11.264Z,11.30
2018-03-11T03:04:14.803Z,11.20
2018-03-11T03:06:18.359Z,11.10
2018-03-11T03:08:21.920Z,11.20
2018-03-11T03:10:25.486Z,11.30
2018-03-11T03:12:29.098Z,11.40
2018-03-11T03:14:32.656Z,11.30
2018-03-11T03:16:36.236Z,11.20
2018-03-11T03:18:39.719Z,11.00
2018-03-11T03:20:43.269Z,11.00
2018-03-11T03:22:46.871Z,11.00
2018-03-11T03:24:50.422Z,11.00
2018-03-11T03:26:54.735Z,10.70
2018-03-11T03:28:59.087Z,10.80
2018-03-11T03:31:02.626Z,10.70
2018-03-11T03:33:06.197Z,10.70
2018-03-11T03:35:09.744Z,10.80
2018-03-11T03:37:14.095Z,10.80
2018-03-11T03:39:17.655Z,10.70
2018-03-11T03:41:21.206Z,10.60
2018-03-11T03:43:24.779Z,10.50
2018-03-11T03:45:28.337Z,10.50
2018-03-11T03:47:32.690Z,10.50
2018-03-11T03:49:36.285Z,10.50
2018-03-11T03:51:39.828Z,10.60
2018-03-11T03:53:43.423Z,10.60
2018-03-11T03:55:47.034Z,10.70
2018-03-11T03:57:50.579Z,10.50
2018-03-11T03:59:54.151Z,10.30
2018-03-11T04:01:58.486Z,10.40
2018-03-11T04:04:02.003Z,10.40
2018-03-11T04:06:05.573Z,10.50
2018-03-11T04:08:09.172Z,10.30
2018-03-11T04:10:12.765Z,10.20
2018-03-11T04:12:16.285Z,10.10
2018-03-11T04:14:19.844Z,9.90
2018-03-11T04:16:24.157Z,9.80
2018-03-11T04:18:28.488Z,9.80
2018-03-11T04:20:32.017Z,9.80
2018-03-11T04:22:35.734Z,9.80
2018-03-11T04:24:39.257Z,9.70
2018-03-11T04:26:42.841Z,9.60
2018-03-11T04:28:47.169Z,9.60
2018-03-11T04:30:51.428Z,9.50
2018-03-11T04:32:55.011Z,9.50
2018-03-11T04:34:58.519Z,9.40
2018-03-11T04:37:02.274Z,9.30
2018-03-11T04:39:05.849Z,9.40
2018-03-11T04:41:09.382Z,9.20
2018-03-11T04:43:12.971Z,9.20
2018-03-11T04:45:16.537Z,9.10
2018-03-11T04:47:21.096Z,9.00
2018-03-11T04:49:24.793Z,9.00
2018-03-11T04:51:28.350Z,9.00
2018-03-11T04:53:34.389Z,8.90
2018-03-11T04:55:39.990Z,8.80
2018-03-11T04:57:43.909Z,8.80
2018-03-11T04:59:47.532Z,8.60
2018-03-11T05:01:51.055Z,8.50
2018-03-11T05:03:54.517Z,8.30
2018-03-11T05:05:58.122Z,8.30
2018-03-11T05:08:01.665Z,8.30
2018-03-11T05:10:05.652Z,8.30
2018-03-11T05:12:09.259Z,8.40
2018-03-11T05:14:12.784Z,8.50
2018-03-11T05:16:16.387Z,8.40
2018-03-11T05:18:20.006Z,8.30
2018-03-11T05:20:23.543Z,8.30
2018-03-11T05:22:27.162Z,8.30
2018-03-11T05:24:33.906Z,8.30
2018-03-11T05:26:38.282Z,8.30
2018-03-11T05:28:41.805Z,8.10
2018-03-11T05:30:45.322Z,8.00
2018-03-11T05:32:49.640Z,8.30
2018-03-11T05:34:53.182Z,8.30
2018-03-11T05:36:56.701Z,8.20
2018-03-11T05:39:01.046Z,8.20
2018-03-11T05:41:04.607Z,8.20
2018-03-11T05:43:08.955Z,8.40
2018-03-11T05:45:12.511Z,8.30
2018-03-11T05:47:21.818Z,8.10
2018-03-11T05:49:26.037Z,8.00
2018-03-11T05:51:29.799Z,8.20
2018-03-11T05:53:33.428Z,8.10
2018-03-11T05:55:37.229Z,8.20
2018-03-11T05:57:41.794Z,8.30
2018-03-11T05:59:45.462Z,8.30
2018-03-11T06:01:49.000Z,8.20
2018-03-11T06:03:52.590Z,8.20
2018-03-11T06:05:56.195Z,8.00
2018-03-11T06:07:59.779Z,8.00
2018-03-11T06:10:04.536Z,8.10
2018-03-11T06:12:09.614Z,8.10
2018-03-11T06:14:13.147Z,8.00
2018-03-11T06:16:16.704Z,7.90
2018-03-11T06:18:20.194Z,8.00
2018-03-11T06:20:24.495Z,7.90
2018-03-11T06:22:28.095Z,7.90
2018-03-11T06:24:31.671Z,7.90
2018-03-11T06:26:35.989Z,8.00
2018-03-11T06:28:39.526Z,7.90
2018-03-11T06:30:43.086Z,7.90
2018-03-11T06:32:46.673Z,7.90
2018-03-11T06:34:50.209Z,8.00
2018-03-11T06:36:54.091Z,8.10
2018-03-11T06:38:57.665Z,8.10
2018-03-11T06:41:01.209Z,8.10
2018-03-11T06:43:06.328Z,8.10
2018-03-11T06:45:09.948Z,8.10
2018-03-11T06:47:14.879Z,8.20
2018-03-11T06:49:24.516Z,8.30
2018-03-11T06:51:28.633Z,8.30
2018-03-11T06:53:32.350Z,8.40
2018-03-11T06:55:35.891Z,8.40
2018-03-11T06:57:40.254Z,8.50
2018-03-11T06:59:43.829Z,8.50
2018-03-11T07:01:49.023Z,8.60
2018-03-11T07:03:52.611Z,8.60
2018-03-11T07:05:58.417Z,8.80
2018-03-11T07:08:02.063Z,8.80
2018-03-11T07:10:06.506Z,8.80
2018-03-11T07:12:12.575Z,8.60
2018-03-11T07:14:16.905Z,8.50
2018-03-11T07:16:20.460Z,8.50
2018-03-11T07:18:23.954Z,8.60
2018-03-11T07:20:27.502Z,8.60
2018-03-11T07:22:31.013Z,8.70
2018-03-11T07:24:34.593Z,8.80
2018-03-11T07:26:38.163Z,8.90
2018-03-11T07:28:42.962Z,9.10
2018-03-11T07:30:46.659Z,9.00
2018-03-11T07:32:50.239Z,9.20
2018-03-11T07:34:53.766Z,9.40
2018-03-11T07:36:58.146Z,9.60
2018-03-11T07:39:01.690Z,9.60
2018-03-11T07:41:06.074Z,9.70
2018-03-11T07:43:10.422Z,9.70
2018-03-11T07:45:14.737Z,9.70
2018-03-11T07:47:20.857Z,9.70
2018-03-11T07:49:26.837Z,9.80
2018-03-11T07:51:31.190Z,9.90
2018-03-11T07:53:34.713Z,9.90
2018-03-11T07:55:42.289Z,9.90
2018-03-11T07:57:46.866Z,10.00
2018-03-11T07:59:50.469Z,10.00
2018-03-11T08:01:54.923Z,10.00
2018-03-11T08:03:58.599Z,10.10
2018-03-11T08:06:02.185Z,10.20
2018-03-11T08:08:05.765Z,10.20
2018-03-11T08:10:09.334Z,10.30
2018-03-11T08:12:12.881Z,10.30
2018-03-11T08:14:17.080Z,10.30
2018-03-11T08:16:20.768Z,10.30
2018-03-11T08:18:25.069Z,10.40
2018-03-11T08:20:28.603Z,10.40
2018-03-11T08:22:32.157Z,10.40
2018-03-11T08:24:36.484Z,10.60
2018-03-11T08:26:40.814Z,10.60
2018-03-11T08:28:44.375Z,10.60
2018-03-11T08:30:47.906Z,10.70
2018-03-11T08:32:51.509Z,10.70
2018-03-11T08:34:55.058Z,10.70
2018-03-11T08:36:59.391Z,10.70
2018-03-11T08:39:03.796Z,10.80
2018-03-11T08:41:07.395Z,10.90
2018-03-11T08:43:10.981Z,11.00
2018-03-11T08:45:14.508Z,11.00
2018-03-11T08:47:19.696Z,11.10
2018-03-11T08:49:24.996Z,11.30
2018-03-11T08:51:28.518Z,11.30
2018-03-11T08:53:32.089Z,11.40
2018-03-11T08:55:35.676Z,11.50
2018-03-11T08:57:39.269Z,11.50
2018-03-11T08:59:42.796Z,11.60
2018-03-11T09:01:46.344Z,11.70
2018-03-11T09:03:50.635Z,11.80
2018-03-11T09:05:54.211Z,11.70
2018-03-11T09:07:57.816Z,11.80
2018-03-11T09:10:01.384Z,11.80
2018-03-11T09:12:04.970Z,11.90
2018-03-11T09:14:08.574Z,11.90
2018-03-11T09:16:12.128Z,11.90
2018-03-11T09:18:15.753Z,12.00
2018-03-11T09:20:19.284Z,12.10
2018-03-11T09:22:22.793Z,12.00
2018-03-11T09:24:26.347Z,12.20
2018-03-11T09:26:29.930Z,12.30
2018-03-11T09:28:33.518Z,12.30
2018-03-11T09:30:37.174Z,12.40
2018-03-11T09:32:40.719Z,12.40
2018-03-11T09:34:44.275Z,12.40
2018-03-11T09:36:47.823Z,12.60
2018-03-11T09:38:51.331Z,12.70
2018-03-11T09:40:54.922Z,12.60
2018-03-11T09:42:58.531Z,12.60
2018-03-11T09:45:02.131Z,12.60
2018-03-11T09:47:05.720Z,12.70
2018-03-11T09:49:09.341Z,12.70
2018-03-11T09:51:12.875Z,12.70
2018-03-11T09:53:17.292Z,12.70
2018-03-11T09:55:21.578Z,12.60
2018-03-11T09:57:25.108Z,12.60
2018-03-11T09:59:29.389Z,12.70
2018-03-11T10:01:32.934Z,12.70
2018-03-11T10:03:36.807Z,12.70
2018-03-11T10:05:41.142Z,12.80
2018-03-11T10:07:44.688Z,12.80
2018-03-11T10:09:48.225Z,12.90
2018-03-11T10:11:51.833Z,13.00
2018-03-11T10:13:55.351Z,13.10
2018-03-11T10:15:58.916Z,13.10
2018-03-11T10:18:02.590Z,13.10
2018-03-11T10:20:06.105Z,13.00
2018-03-11T10:22:09.755Z,13.00
2018-03-11T10:24:13.284Z,12.90
2018-03-11T10:26:17.637Z,12.70
2018-03-11T10:28:21.171Z,12.70
2018-03-11T10:30:24.709Z,12.60
2018-03-11T10:32:28.281Z,12.60
2018-03-11T10:34:32.578Z,12.50
2018-03-11T10:36:36.094Z,12.40
2018-03-11T10:38:40.439Z,12.40
2018-03-11T10:40:44.001Z,12.30
2018-03-11T10:42:47.510Z,12.40
2018-03-11T10:44:51.095Z,12.40
2018-03-11T10:46:54.723Z,12.40
2018-03-11T10:48:58.563Z,12.40
2018-03-11T10:51:04.290Z,12.30
2018-03-11T10:53:08.034Z,12.30
2018-03-11T10:55:12.388Z,12.30
2018-03-11T10:57:15.954Z,12.30
2018-03-11T10:59:19.464Z,12.30
2018-03-11T11:01:23.067Z,12.30
2018-03-11T11:03:28.436Z,12.40
2018-03-11T11:05:31.943Z,12.40
2018-03-11T11:07:35.538Z,12.50
2018-03-11T11:09:39.048Z,12.50
2018-03-11T11:11:42.573Z,12.40
2018-03-11T11:13:46.185Z,12.40
2018-03-11T11:15:49.781Z,12.50
2018-03-11T11:17:53.355Z,12.60
2018-03-11T11:19:57.623Z,12.60
2018-03-11T11:22:01.213Z,12.60
2018-03-11T11:24:04.820Z,12.60
2018-03-11T11:26:08.410Z,12.60
2018-03-11T11:28:11.964Z,12.70
2018-03-11T11:30:16.257Z,12.60
2018-03-11T11:32:20.620Z,12.70
2018-03-11T11:34:24.160Z,12.70
2018-03-11T11:36:28.443Z,12.70
2018-03-11T11:38:32.046Z,12.70
2018-03-11T11:40:40.596Z,12.80
2018-03-11T11:42:45.437Z,12.80
2018-03-11T11:44:51.825Z,12.80
2018-03-11T11:46:57.103Z,12.80
2018-03-11T11:49:01.424Z,12.90
2018-03-11T11:51:05.814Z,12.80
2018-03-11T11:53:09.366Z,12.80
2018-03-11T11:55:13.004Z,12.80
2018-03-11T11:57:16.519Z,12.70
2018-03-11T11:59:20.839Z,12.90
2018-03-11T12:01:24.970Z,12.80
2018-03-11T12:03:28.738Z,12.80
2018-03-11T12:05:32.324Z,12.80
2018-03-11T12:07:35.917Z,12.80
2018-03-11T12:09:39.446Z,12.70
2018-03-11T12:11:46.814Z,12.70
2018-03-11T12:13:51.156Z,12.70
2018-03-11T12:15:55.926Z,12.80
2018-03-11T12:18:00.235Z,12.90
2018-03-11T12:20:04.758Z,12.80
2018-03-11T12:22:08.285Z,12.90
2018-03-11T12:24:12.593Z,12.90
2018-03-11T12:26:16.128Z,12.90
2018-03-11T12:28:19.659Z,12.90
2018-03-11T12:30:23.173Z,13.00
2018-03-11T12:32:26.688Z,13.10
2018-03-11T12:34:36.248Z,13.10
2018-03-11T12:36:40.036Z,13.10
2018-03-11T12:38:43.576Z,13.10
2018-03-11T12:40:52.829Z,13.20
2018-03-11T12:42:56.730Z,13.20
2018-03-11T12:45:00.250Z,13.20
2018-03-11T12:47:04.601Z,13.30
2018-03-11T12:49:08.837Z,13.30
2018-03-11T12:51:17.232Z,13.40
2018-03-11T12:53:21.552Z,13.40
2018-03-11T12:55:26.136Z,13.40
2018-03-11T12:57:31.677Z,13.40
2018-03-11T12:59:35.284Z,13.40
2018-03-11T13:01:38.872Z,13.40
2018-03-11T13:03:42.579Z,13.30
2018-03-11T13:05:46.781Z,13.40
2018-03-11T13:07:50.330Z,13.30
2018-03-11T13:09:53.861Z,13.30
2018-03-11T13:11:57.449Z,13.30
2018-03-11T13:14:05.017Z,13.30
2018-03-11T13:16:09.357Z,13.30
2018-03-11T13:18:12.961Z,13.30
2018-03-11T13:20:28.330Z,13.30
2018-03-11T13:22:32.917Z,13.30
2018-03-11T13:24:36.449Z,13.30
2018-03-11T13:26:40.737Z,13.40
2018-03-11T13:28:50.676Z,13.30
2018-03-11T13:30:54.756Z,13.40
2018-03-11T13:33:10.200Z,13.30
2018-03-11T13:35:13.794Z,13.30
2018-03-11T13:37:17.423Z,13.30
2018-03-11T13:39:32.726Z,13.30
2018-03-11T13:41:36.259Z,13.30
2018-03-11T13:43:41.068Z,13.30
2018-03-11T13:45:57.403Z,13.30
2018-03-11T13:48:01.056Z,13.30
2018-03-11T13:50:06.501Z,13.30
2018-03-11T13:52:22.065Z,13.30
2018-03-11T13:54:25.573Z,13.30
2018-03-11T13:56:29.086Z,13.20
2018-03-11T13:58:56.374Z,13.30
2018-03-11T14:01:08.869Z,13.20
2018-03-11T14:03:22.892Z,13.30
2018-03-11T14:05:36.275Z,13.30
2018-03-11T14:07:49.730Z,13.20
2018-03-11T14:10:03.777Z,13.30
2018-03-11T14:12:17.401Z,13.30
2018-03-11T14:14:37.298Z,13.20
2018-03-11T14:16:51.891Z,13.20
2018-03-11T14:19:06.501Z,13.30
2018-03-11T14:21:20.960Z,13.20
2018-03-11T14:23:39.886Z,13.20
2018-03-11T14:25:52.864Z,13.20
2018-03-11T14:28:08.709Z,13.30
2018-03-11T14:30:29.100Z,13.20
2018-03-11T14:32:43.384Z,13.30
2018-03-11T14:34:57.098Z,13.20
2018-03-11T14:37:11.192Z,13.30
2018-03-11T14:39:26.436Z,13.30
2018-03-11T14:41:42.976Z,13.30
2018-03-11T14:43:54.832Z,13.30
2018-03-11T14:46:09.963Z,13.40
2018-03-11T14:48:21.521Z,13.50
2018-03-11T14:50:32.937Z,13.50
2018-03-11T14:52:50.443Z,13.60
2018-03-11T14:55:09.858Z,13.50
2018-03-11T14:57:27.489Z,13.60
2018-03-11T14:59:44.331Z,13.70
2018-03-11T15:01:59.109Z,13.70
2018-03-11T15:04:15.793Z,13.70
2018-03-11T15:06:30.760Z,13.60
2018-03-11T15:08:46.925Z,13.60
2018-03-11T15:11:01.082Z,13.60
2018-03-11T15:13:15.414Z,13.70
2018-03-11T15:15:28.357Z,13.70
2018-03-11T15:17:41.410Z,13.70
2018-03-11T15:19:54.391Z,13.70
2018-03-11T15:22:06.064Z,13.70
2018-03-11T15:24:20.458Z,13.70
2018-03-11T15:31:28.150Z,13.70
2018-03-11T15:33:54.079Z,13.70
2018-03-11T15:36:11.717Z,13.70
2018-03-11T15:48:02.468Z,13.60
2018-03-11T15:50:16.632Z,13.80
2018-03-11T15:52:28.108Z,13.70
2018-03-11T15:54:40.327Z,13.70
2018-03-11T15:56:53.272Z,13.70
2018-03-11T15:59:08.259Z,13.70
2018-03-11T16:01:21.381Z,13.70
2018-03-11T16:03:35.180Z,13.70
2018-03-11T16:05:49.870Z,13.60
2018-03-11T16:08:02.596Z,13.60
2018-03-11T16:10:16.163Z,13.70
2018-03-11T16:12:30.314Z,13.70
2018-03-11T16:14:43.409Z,13.70
2018-03-11T16:17:01.306Z,13.70
2018-03-11T16:19:21.608Z,13.80
2018-03-11T16:21:35.642Z,13.80
2018-03-11T16:23:49.106Z,13.80
2018-03-11T16:26:03.175Z,13.80
2018-03-11T16:28:14.927Z,13.80
2018-03-11T16:30:29.856Z,13.80
2018-03-11T16:32:47.009Z,13.80
2018-03-11T16:34:53.927Z,13.80
2018-03-11T16:37:01.965Z,13.80
2018-03-11T16:39:10.695Z,13.80
2018-03-11T16:41:20.606Z,13.90
2018-03-11T16:43:31.525Z,13.90
2018-03-11T16:45:46.646Z,13.80
2018-03-11T16:47:56.602Z,13.80
2018-03-11T16:50:09.372Z,13.70
2018-03-11T16:52:26.169Z,13.70
2018-03-11T16:54:40.483Z,13.70
2018-03-11T16:56:57.567Z,13.70
2018-03-11T16:59:10.705Z,13.70
2018-03-11T17:01:26.634Z,13.60
2018-03-11T17:03:39.537Z,13.60
2018-03-11T17:05:54.685Z,13.40
2018-03-11T17:08:05.561Z,13.40
2018-03-11T17:10:19.565Z,13.30
2018-03-11T17:12:33.439Z,13.30
2018-03-11T17:14:52.747Z,13.30
2018-03-11T17:19:27.594Z,13.00
2018-03-11T17:21:39.967Z,12.90
2018-03-11T17:23:52.011Z,12.70
2018-03-11T17:26:03.643Z,12.60
2018-03-11T17:28:18.489Z,12.50
2018-03-11T17:30:31.949Z,12.40
2018-03-11T17:32:46.623Z,12.30
2018-03-11T17:34:59.428Z,12.40
2018-03-11T17:37:05.677Z,12.20
2018-03-11T17:39:09.162Z,12.20
2018-03-11T17:41:19.146Z,12.20
2018-03-11T17:43:32.456Z,11.50
2018-03-11T17:45:37.799Z,11.50
2018-03-11T17:47:50.259Z,11.20
2018-03-11T17:50:01.165Z,11.30
2018-03-11T17:52:09.839Z,11.30
2018-03-11T17:54:18.889Z,11.10
2018-03-11T17:56:28.969Z,11.00
2018-03-11T17:58:35.602Z,10.90
2018-03-11T18:00:50.666Z,10.80
2018-03-11T18:03:06.513Z,10.60
2018-03-11T18:05:19.654Z,10.70
2018-03-11T18:07:28.672Z,10.70
2018-03-11T18:09:33.045Z,10.60
2018-03-11T18:11:45.366Z,10.50
2018-03-11T18:14:03.146Z,10.60
2018-03-11T18:16:08.762Z,10.40
2018-03-11T18:18:27.967Z,10.30
2018-03-11T18:20:55.468Z,10.30
2018-03-11T18:23:10.629Z,10.20
2018-03-11T18:25:16.133Z,10.00
2018-03-11T18:27:20.446Z,9.90
2018-03-11T18:29:23.968Z,9.90
2018-03-11T18:31:27.475Z,9.90
2018-03-11T18:33:31.045Z,9.90
2018-03-11T18:35:35.360Z,10.00
2018-03-11T18:37:38.892Z,9.90
2018-03-11T18:39:42.377Z,10.10
2018-03-11T18:41:45.957Z,10.10
2018-03-11T18:43:49.517Z,9.90
2018-03-11T18:45:53.059Z,9.80
2018-03-11T18:47:56.601Z,9.40
2018-03-11T18:50:00.887Z,9.40
2018-03-11T18:52:04.427Z,9.50
2018-03-11T18:54:08.752Z,9.50
2018-03-11T18:56:13.087Z,9.50
2018-03-11T18:58:16.629Z,9.50
2018-03-11T19:00:20.089Z,9.60
2018-03-11T19:02:23.639Z,9.70
2018-03-11T19:04:28.030Z,9.80
2018-03-11T19:06:31.560Z,9.70
2018-03-11T19:08:35.874Z,9.70
2018-03-11T19:10:39.350Z,9.70
2018-03-11T19:12:43.718Z,9.40
2018-03-11T19:14:47.269Z,9.40
2018-03-11T19:16:51.655Z,9.40
2018-03-11T19:18:55.209Z,9.40
2018-03-11T19:20:58.714Z,9.40
2018-03-11T19:23:02.357Z,9.40
2018-03-11T19:25:05.908Z,9.20
2018-03-11T19:27:09.450Z,9.30
2018-03-11T19:29:13.801Z,9.30
2018-03-11T19:31:17.361Z,9.30
2018-03-11T19:33:20.834Z,9.20
2018-03-11T19:35:24.308Z,9.00
2018-03-11T19:37:33.768Z,9.00
2018-03-11T19:39:37.753Z,9.10
2018-03-11T19:41:41.820Z,9.30
2018-03-11T19:43:45.383Z,9.10
2018-03-11T19:45:49.678Z,9.10
2018-03-11T19:47:53.218Z,9.10
2018-03-11T19:49:56.742Z,9.00
2018-03-11T19:52:00.268Z,9.20
2018-03-11T19:54:03.872Z,9.00
2018-03-11T19:56:07.409Z,8.90
2018-03-11T19:58:11.857Z,8.90
2018-03-11T20:00:15.401Z,8.80
2018-03-11T20:02:19.660Z,8.80
2018-03-11T20:04:23.446Z,8.80
2018-03-11T20:06:27.018Z,8.40
2018-03-11T20:08:31.303Z,8.30
2018-03-11T20:10:34.849Z,8.30
2018-03-11T20:12:38.408Z,8.30
2018-03-11T20:14:41.920Z,8.30
2018-03-11T20:16:47.299Z,8.50
2018-03-11T20:18:51.899Z,8.50
2018-03-11T20:20:55.477Z,8.50
2018-03-11T20:22:59.784Z,8.30
2018-03-11T20:25:05.856Z,8.20
2018-03-11T20:27:09.429Z,8.20
2018-03-11T20:29:12.925Z,8.10
2018-03-11T20:31:16.564Z,8.00
2018-03-11T20:33:20.204Z,8.10
2018-03-11T20:35:24.498Z,8.00
2018-03-11T20:37:28.037Z,7.90
2018-03-11T20:39:32.330Z,7.70
2018-03-11T20:41:36.511Z,7.70
2018-03-11T20:43:40.820Z,8.10
2018-03-11T20:45:44.372Z,8.10
2018-03-11T20:47:47.864Z,8.30
2018-03-11T20:49:52.188Z,8.20
2018-03-11T20:51:55.728Z,8.20
2018-03-11T20:53:59.252Z,8.00
2018-03-11T20:56:03.623Z,7.70
2018-03-11T20:58:07.135Z,7.70
2018-03-11T21:00:10.657Z,7.50
2018-03-11T21:02:14.948Z,7.70
2018-03-11T21:04:18.448Z,7.70
2018-03-11T21:06:22.023Z,7.50
2018-03-11T21:08:25.575Z,7.40
2018-03-11T21:10:29.127Z,7.10
2018-03-11T21:12:33.486Z,7.70
2018-03-11T21:14:37.751Z,7.70
2018-03-11T21:16:41.253Z,7.80
2018-03-11T21:18:44.837Z,7.80
2018-03-11T21:20:48.381Z,7.70
2018-03-11T21:22:52.108Z,7.70
2018-03-11T21:24:55.760Z,7.60
2018-03-11T21:26:59.302Z,7.70
2018-03-11T21:29:02.836Z,7.70
2018-03-11T21:31:06.500Z,7.70
2018-03-11T21:33:09.979Z,7.50
2018-03-11T21:35:13.899Z,7.50
2018-03-11T21:37:17.455Z,7.60
2018-03-11T21:39:21.741Z,7.70
2018-03-11T21:41:25.282Z,7.70
2018-03-11T21:43:28.895Z,7.70
2018-03-11T21:45:32.386Z,7.40
2018-03-11T21:47:35.894Z,7.30
2018-03-11T21:49:39.424Z,7.20
2018-03-11T21:51:42.922Z,7.20
2018-03-11T21:53:46.482Z,7.20
2018-03-11T21:55:50.055Z,7.30
2018-03-11T21:57:53.601Z,7.30
2018-03-11T22:00:01.436Z,7.20
2018-03-11T22:02:05.203Z,7.30
2018-03-11T22:04:09.482Z,7.30
2018-03-11T22:06:13.189Z,7.30
2018-03-11T22:08:16.730Z,7.30
2018-03-11T22:10:24.475Z,7.10
2018-03-11T22:12:28.018Z,7.10
2018-03-11T22:14:32.657Z,7.10
2018-03-11T22:16:36.199Z,6.80
2018-03-11T22:18:40.041Z,6.90
2018-03-11T22:20:44.305Z,6.70
2018-03-11T22:22:48.258Z,6.70
2018-03-11T22:24:51.812Z,6.90
2018-03-11T22:26:55.508Z,7.00
2018-03-11T22:28:59.621Z,7.20
2018-03-11T22:31:03.320Z,7.00
2018-03-11T22:33:07.076Z,6.80
2018-03-11T22:35:10.573Z,6.70
2018-03-11T22:37:15.700Z,6.50
2018-03-11T22:39:19.599Z,6.50
2018-03-11T22:41:24.176Z,6.50
2018-03-11T22:43:28.423Z,6.70
2018-03-11T22:45:32.995Z,6.50
2018-03-11T22:47:37.675Z,6.60
2018-03-11T22:49:41.974Z,6.70
2018-03-11T22:51:46.350Z,6.60
2018-03-11T22:53:49.901Z,6.60
2018-03-11T22:55:54.155Z,6.60
2018-03-11T22:57:57.835Z,6.60
2018-03-11T23:00:04.419Z,6.50
2018-03-11T23:02:08.534Z,6.50
2018-03-11T23:04:12.967Z,6.60
2018-03-11T23:06:18.305Z,6.70
2018-03-11T23:08:22.685Z,6.60
2018-03-11T23:10:26.307Z,6.50
2018-03-11T23:12:31.043Z,6.70
2018-03-11T23:14:34.754Z,6.70
2018-03-11T23:16:38.570Z,6.60
2018-03-11T23:18:54.122Z,6.30
2018-03-11T23:20:57.723Z,6.30
2018-03-11T23:23:01.473Z,6.30
2018-03-11T23:25:05.974Z,6.00
2018-03-11T23:27:10.528Z,6.30
2018-03-11T23:29:14.422Z,6.30
2018-03-11T23:31:19.527Z,6.30
2018-03-11T23:33:24.460Z,6.20
2018-03-11T23:35:27.986Z,6.10
2018-03-11T23:37:31.541Z,6.30
2018-03-11T23:39:36.180Z,6.10
2018-03-11T23:41:39.898Z,6.10
2018-03-11T23:43:43.930Z,5.90
2018-03-11T23:45:48.281Z,6.00
2018-03-11T23:47:52.225Z,6.00
2018-03-11T23:49:55.935Z,6.20
2018-03-11T23:51:59.554Z,6.00
2018-03-11T23:54:03.107Z,6.00
2018-03-11T23:56:07.007Z,6.10
2018-03-11T23:58:10.657Z,6.00
